sensor_id;sensor_type;location;lat;lon;timestamp;P1;durP1;ratioP1;P2;durP2;ratioP2
50092;SDS011;35974;47.752;10.290;2023-08-30T00:00:59;2.97;;;2.55;;
50092;SDS011;35974;47.752;10.290;2023-08-30T00:03:25;3.92;;;2.60;;
50092;SDS011;35974;47.752;10.290;2023-08-30T00:05:52;2.95;;;2.50;;
50092;SDS011;35974;47.752;10.290;2023-08-30T00:08:18;2.97;;;2.63;;
50092;SDS011;35974;47.752;10.290;2023-08-30T00:10:45;3.60;;;2.47;;
50092;SDS011;35974;47.752;10.290;2023-08-30T00:13:12;2.50;;;2.30;;
50092;SDS011;35974;47.752;10.290;2023-08-30T00:15:39;2.45;;;2.20;;
50092;SDS011;35974;47.752;10.290;2023-08-30T00:18:05;2.95;;;2.45;;
50092;SDS011;35974;47.752;10.290;2023-08-30T00:20:33;2.90;;;2.58;;
50092;SDS011;35974;47.752;10.290;2023-08-30T00:23:00;3.13;;;2.70;;
50092;SDS011;35974;47.752;10.290;2023-08-30T00:25:26;4.00;;;2.70;;
50092;SDS011;35974;47.752;10.290;2023-08-30T00:27:53;2.97;;;2.65;;
50092;SDS011;35974;47.752;10.290;2023-08-30T00:30:20;2.65;;;2.45;;
50092;SDS011;35974;47.752;10.290;2023-08-30T00:32:46;4.82;;;2.80;;
50092;SDS011;35974;47.752;10.290;2023-08-30T00:35:13;4.50;;;2.63;;
50092;SDS011;35974;47.752;10.290;2023-08-30T00:37:39;3.22;;;2.63;;
50092;SDS011;35974;47.752;10.290;2023-08-30T00:40:06;3.10;;;2.50;;
50092;SDS011;35974;47.752;10.290;2023-08-30T00:42:33;6.03;;;2.72;;
50092;SDS011;35974;47.752;10.290;2023-08-30T00:44:59;2.30;;;2.10;;
50092;SDS011;35974;47.752;10.290;2023-08-30T00:47:26;4.35;;;2.42;;
50092;SDS011;35974;47.752;10.290;2023-08-30T00:49:53;2.95;;;2.67;;
50092;SDS011;35974;47.752;10.290;2023-08-30T00:52:20;6.25;;;2.63;;
50092;SDS011;35974;47.752;10.290;2023-08-30T00:54:47;3.20;;;2.33;;
50092;SDS011;35974;47.752;10.290;2023-08-30T00:57:14;2.88;;;2.50;;
50092;SDS011;35974;47.752;10.290;2023-08-30T00:59:40;2.30;;;2.10;;
50092;SDS011;35974;47.752;10.290;2023-08-30T01:02:07;2.47;;;2.15;;
50092;SDS011;35974;47.752;10.290;2023-08-30T01:04:33;2.95;;;2.45;;
50092;SDS011;35974;47.752;10.290;2023-08-30T01:07:00;4.13;;;2.63;;
50092;SDS011;35974;47.752;10.290;2023-08-30T01:09:26;2.95;;;2.65;;
50092;SDS011;35974;47.752;10.290;2023-08-30T01:14:25;2.80;;;2.45;;
50092;SDS011;35974;47.752;10.290;2023-08-30T01:16:57;3.50;;;2.80;;
50092;SDS011;35974;47.752;10.290;2023-08-30T01:22:18;3.88;;;3.22;;
50092;SDS011;35974;47.752;10.290;2023-08-30T01:25:00;3.40;;;2.90;;
50092;SDS011;35974;47.752;10.290;2023-08-30T01:27:48;3.80;;;2.70;;
50092;SDS011;35974;47.752;10.290;2023-08-30T01:30:17;4.00;;;3.15;;
50092;SDS011;35974;47.752;10.290;2023-08-30T01:32:46;3.03;;;2.25;;
50092;SDS011;35974;47.752;10.290;2023-08-30T01:35:14;2.88;;;2.60;;
50092;SDS011;35974;47.752;10.290;2023-08-30T01:37:44;2.42;;;2.22;;
50092;SDS011;35974;47.752;10.290;2023-08-30T01:40:12;3.08;;;2.72;;
50092;SDS011;35974;47.752;10.290;2023-08-30T01:42:41;3.88;;;2.55;;
50092;SDS011;35974;47.752;10.290;2023-08-30T01:45:11;3.47;;;2.72;;
50092;SDS011;35974;47.752;10.290;2023-08-30T01:47:40;3.55;;;2.60;;
50092;SDS011;35974;47.752;10.290;2023-08-30T01:50:10;3.22;;;2.80;;
50092;SDS011;35974;47.752;10.290;2023-08-30T01:52:38;2.95;;;2.60;;
50092;SDS011;35974;47.752;10.290;2023-08-30T01:55:06;4.07;;;3.05;;
50092;SDS011;35974;47.752;10.290;2023-08-30T01:57:34;6.15;;;2.90;;
50092;SDS011;35974;47.752;10.290;2023-08-30T02:00:01;3.30;;;2.80;;
50092;SDS011;35974;47.752;10.290;2023-08-30T02:02:28;3.58;;;2.80;;
50092;SDS011;35974;47.752;10.290;2023-08-30T02:04:56;2.72;;;2.47;;
50092;SDS011;35974;47.752;10.290;2023-08-30T02:07:30;4.30;;;2.47;;
50092;SDS011;35974;47.752;10.290;2023-08-30T02:10:00;4.53;;;2.88;;
50092;SDS011;35974;47.752;10.290;2023-08-30T02:12:34;3.15;;;2.78;;
50092;SDS011;35974;47.752;10.290;2023-08-30T02:17:36;3.00;;;2.60;;
50092;SDS011;35974;47.752;10.290;2023-08-30T02:20:04;3.80;;;2.78;;
50092;SDS011;35974;47.752;10.290;2023-08-30T02:22:32;3.85;;;2.53;;
50092;SDS011;35974;47.752;10.290;2023-08-30T02:24:59;4.07;;;2.58;;
50092;SDS011;35974;47.752;10.290;2023-08-30T02:27:31;3.22;;;2.90;;
50092;SDS011;35974;47.752;10.290;2023-08-30T02:29:57;2.85;;;2.42;;
50092;SDS011;35974;47.752;10.290;2023-08-30T02:32:24;3.28;;;2.55;;
50092;SDS011;35974;47.752;10.290;2023-08-30T02:34:51;4.32;;;3.00;;
50092;SDS011;35974;47.752;10.290;2023-08-30T02:37:19;3.33;;;2.92;;
50092;SDS011;35974;47.752;10.290;2023-08-30T02:39:45;4.07;;;3.05;;
50092;SDS011;35974;47.752;10.290;2023-08-30T02:42:12;3.85;;;3.42;;
50092;SDS011;35974;47.752;10.290;2023-08-30T02:44:38;3.85;;;3.20;;
50092;SDS011;35974;47.752;10.290;2023-08-30T02:47:05;4.45;;;3.30;;
50092;SDS011;35974;47.752;10.290;2023-08-30T02:49:32;3.90;;;3.03;;
50092;SDS011;35974;47.752;10.290;2023-08-30T02:51:58;4.95;;;3.30;;
50092;SDS011;35974;47.752;10.290;2023-08-30T02:54:24;4.30;;;3.60;;
50092;SDS011;35974;47.752;10.290;2023-08-30T02:56:51;3.90;;;3.47;;
50092;SDS011;35974;47.752;10.290;2023-08-30T02:59:17;5.03;;;3.90;;
50092;SDS011;35974;47.752;10.290;2023-08-30T03:01:44;5.47;;;3.97;;
50092;SDS011;35974;47.752;10.290;2023-08-30T03:04:10;6.50;;;4.35;;
50092;SDS011;35974;47.752;10.290;2023-08-30T03:06:37;4.57;;;3.70;;
50092;SDS011;35974;47.752;10.290;2023-08-30T03:09:04;4.95;;;3.90;;
50092;SDS011;35974;47.752;10.290;2023-08-30T03:11:32;5.10;;;3.92;;
50092;SDS011;35974;47.752;10.290;2023-08-30T03:13:59;4.57;;;3.65;;
50092;SDS011;35974;47.752;10.290;2023-08-30T03:16:26;5.07;;;4.00;;
50092;SDS011;35974;47.752;10.290;2023-08-30T03:18:52;5.85;;;4.25;;
50092;SDS011;35974;47.752;10.290;2023-08-30T03:21:18;6.53;;;4.70;;
50092;SDS011;35974;47.752;10.290;2023-08-30T03:23:45;5.20;;;4.10;;
50092;SDS011;35974;47.752;10.290;2023-08-30T03:26:12;6.85;;;4.43;;
50092;SDS011;35974;47.752;10.290;2023-08-30T03:28:41;5.63;;;4.53;;
50092;SDS011;35974;47.752;10.290;2023-08-30T03:31:14;5.80;;;4.93;;
50092;SDS011;35974;47.752;10.290;2023-08-30T03:33:42;6.03;;;4.82;;
50092;SDS011;35974;47.752;10.290;2023-08-30T03:36:11;5.45;;;4.18;;
50092;SDS011;35974;47.752;10.290;2023-08-30T03:38:39;5.28;;;4.38;;
50092;SDS011;35974;47.752;10.290;2023-08-30T03:41:06;6.47;;;5.15;;
50092;SDS011;35974;47.752;10.290;2023-08-30T03:43:33;5.38;;;4.60;;
50092;SDS011;35974;47.752;10.290;2023-08-30T03:46:00;6.30;;;4.63;;
50092;SDS011;35974;47.752;10.290;2023-08-30T03:48:27;8.13;;;6.10;;
50092;SDS011;35974;47.752;10.290;2023-08-30T03:50:54;10.13;;;5.47;;
50092;SDS011;35974;47.752;10.290;2023-08-30T03:53:21;7.15;;;5.72;;
50092;SDS011;35974;47.752;10.290;2023-08-30T03:55:47;7.50;;;5.78;;
50092;SDS011;35974;47.752;10.290;2023-08-30T03:58:14;6.70;;;4.95;;
50092;SDS011;35974;47.752;10.290;2023-08-30T04:00:42;6.70;;;5.07;;
50092;SDS011;35974;47.752;10.290;2023-08-30T04:03:09;6.60;;;4.93;;
50092;SDS011;35974;47.752;10.290;2023-08-30T04:05:36;6.63;;;4.88;;
50092;SDS011;35974;47.752;10.290;2023-08-30T04:08:04;6.70;;;5.32;;
50092;SDS011;35974;47.752;10.290;2023-08-30T04:10:38;7.82;;;5.93;;
50092;SDS011;35974;47.752;10.290;2023-08-30T04:13:07;7.65;;;5.60;;
50092;SDS011;35974;47.752;10.290;2023-08-30T04:15:38;8.50;;;5.57;;
50092;SDS011;35974;47.752;10.290;2023-08-30T04:18:05;7.88;;;5.40;;
50092;SDS011;35974;47.752;10.290;2023-08-30T04:20:33;6.25;;;5.25;;
50092;SDS011;35974;47.752;10.290;2023-08-30T04:23:00;7.97;;;5.40;;
50092;SDS011;35974;47.752;10.290;2023-08-30T04:25:28;7.18;;;5.40;;
50092;SDS011;35974;47.752;10.290;2023-08-30T04:27:55;5.95;;;5.10;;
50092;SDS011;35974;47.752;10.290;2023-08-30T04:30:22;6.80;;;5.28;;
50092;SDS011;35974;47.752;10.290;2023-08-30T04:32:49;6.13;;;4.82;;
50092;SDS011;35974;47.752;10.290;2023-08-30T04:35:16;7.00;;;4.90;;
50092;SDS011;35974;47.752;10.290;2023-08-30T04:37:43;5.47;;;4.40;;
50092;SDS011;35974;47.752;10.290;2023-08-30T04:40:09;6.00;;;4.57;;
50092;SDS011;35974;47.752;10.290;2023-08-30T04:42:36;7.25;;;4.70;;
50092;SDS011;35974;47.752;10.290;2023-08-30T04:45:04;5.70;;;4.72;;
50092;SDS011;35974;47.752;10.290;2023-08-30T04:47:31;5.13;;;4.07;;
50092;SDS011;35974;47.752;10.290;2023-08-30T04:49:58;5.10;;;4.40;;
50092;SDS011;35974;47.752;10.290;2023-08-30T04:52:25;6.20;;;4.47;;
50092;SDS011;35974;47.752;10.290;2023-08-30T04:54:52;5.53;;;4.45;;
50092;SDS011;35974;47.752;10.290;2023-08-30T04:57:19;6.82;;;4.70;;
50092;SDS011;35974;47.752;10.290;2023-08-30T04:59:45;7.05;;;5.20;;
50092;SDS011;35974;47.752;10.290;2023-08-30T05:02:12;6.82;;;5.38;;
50092;SDS011;35974;47.752;10.290;2023-08-30T05:04:38;8.35;;;6.13;;
50092;SDS011;35974;47.752;10.290;2023-08-30T05:07:05;6.80;;;5.50;;
50092;SDS011;35974;47.752;10.290;2023-08-30T05:09:31;6.93;;;5.60;;
50092;SDS011;35974;47.752;10.290;2023-08-30T05:11:58;7.70;;;5.68;;
50092;SDS011;35974;47.752;10.290;2023-08-30T05:14:25;7.00;;;5.63;;
50092;SDS011;35974;47.752;10.290;2023-08-30T05:16:52;7.68;;;5.10;;
50092;SDS011;35974;47.752;10.290;2023-08-30T05:19:19;7.60;;;6.05;;
50092;SDS011;35974;47.752;10.290;2023-08-30T05:21:45;8.00;;;6.00;;
50092;SDS011;35974;47.752;10.290;2023-08-30T05:24:12;8.48;;;6.18;;
50092;SDS011;35974;47.752;10.290;2023-08-30T05:26:38;8.95;;;6.68;;
50092;SDS011;35974;47.752;10.290;2023-08-30T05:29:05;8.70;;;6.47;;
50092;SDS011;35974;47.752;10.290;2023-08-30T05:31:31;9.52;;;6.40;;
50092;SDS011;35974;47.752;10.290;2023-08-30T05:33:58;8.70;;;6.25;;
50092;SDS011;35974;47.752;10.290;2023-08-30T05:36:24;8.75;;;6.05;;
50092;SDS011;35974;47.752;10.290;2023-08-30T05:38:51;8.27;;;5.90;;
50092;SDS011;35974;47.752;10.290;2023-08-30T05:41:17;8.15;;;5.93;;
50092;SDS011;35974;47.752;10.290;2023-08-30T05:43:44;7.57;;;5.55;;
50092;SDS011;35974;47.752;10.290;2023-08-30T05:46:10;10.07;;;6.30;;
50092;SDS011;35974;47.752;10.290;2023-08-30T05:48:41;7.18;;;5.18;;
50092;SDS011;35974;47.752;10.290;2023-08-30T05:51:07;7.47;;;5.15;;
50092;SDS011;35974;47.752;10.290;2023-08-30T05:53:34;7.55;;;5.07;;
50092;SDS011;35974;47.752;10.290;2023-08-30T05:56:01;6.47;;;5.00;;
50092;SDS011;35974;47.752;10.290;2023-08-30T05:58:27;8.90;;;5.60;;
50092;SDS011;35974;47.752;10.290;2023-08-30T06:00:54;6.93;;;5.15;;
50092;SDS011;35974;47.752;10.290;2023-08-30T06:03:20;7.93;;;5.40;;
50092;SDS011;35974;47.752;10.290;2023-08-30T06:05:47;9.02;;;5.30;;
50092;SDS011;35974;47.752;10.290;2023-08-30T06:08:15;6.68;;;5.18;;
50092;SDS011;35974;47.752;10.290;2023-08-30T06:10:41;5.82;;;5.03;;
50092;SDS011;35974;47.752;10.290;2023-08-30T06:13:08;7.35;;;5.35;;
50092;SDS011;35974;47.752;10.290;2023-08-30T06:15:35;6.68;;;4.97;;
50092;SDS011;35974;47.752;10.290;2023-08-30T06:18:01;6.18;;;4.85;;
50092;SDS011;35974;47.752;10.290;2023-08-30T06:20:29;8.57;;;5.53;;
50092;SDS011;35974;47.752;10.290;2023-08-30T06:22:57;6.80;;;5.10;;
50092;SDS011;35974;47.752;10.290;2023-08-30T06:25:25;6.47;;;4.80;;
50092;SDS011;35974;47.752;10.290;2023-08-30T06:27:56;6.93;;;3.67;;
50092;SDS011;35974;47.752;10.290;2023-08-30T06:30:25;4.43;;;3.45;;
50092;SDS011;35974;47.752;10.290;2023-08-30T06:32:52;4.45;;;3.45;;
50092;SDS011;35974;47.752;10.290;2023-08-30T06:35:18;3.53;;;3.22;;
50092;SDS011;35974;47.752;10.290;2023-08-30T06:37:45;3.97;;;3.40;;
50092;SDS011;35974;47.752;10.290;2023-08-30T06:40:12;4.07;;;3.40;;
50092;SDS011;35974;47.752;10.290;2023-08-30T06:42:38;4.90;;;4.18;;
50092;SDS011;35974;47.752;10.290;2023-08-30T06:45:05;8.50;;;4.90;;
50092;SDS011;35974;47.752;10.290;2023-08-30T06:47:32;6.88;;;4.20;;
50092;SDS011;35974;47.752;10.290;2023-08-30T06:49:59;4.53;;;3.92;;
50092;SDS011;35974;47.752;10.290;2023-08-30T06:52:27;5.05;;;4.00;;
50092;SDS011;35974;47.752;10.290;2023-08-30T06:54:53;6.35;;;3.80;;
50092;SDS011;35974;47.752;10.290;2023-08-30T06:57:20;4.95;;;3.67;;
50092;SDS011;35974;47.752;10.290;2023-08-30T06:59:48;4.05;;;3.47;;
50092;SDS011;35974;47.752;10.290;2023-08-30T07:02:14;4.25;;;3.60;;
50092;SDS011;35974;47.752;10.290;2023-08-30T07:04:42;4.20;;;3.53;;
50092;SDS011;35974;47.752;10.290;2023-08-30T07:07:08;4.03;;;3.60;;
50092;SDS011;35974;47.752;10.290;2023-08-30T07:09:35;4.25;;;3.72;;
50092;SDS011;35974;47.752;10.290;2023-08-30T07:12:01;3.42;;;3.00;;
50092;SDS011;35974;47.752;10.290;2023-08-30T07:14:28;6.80;;;4.28;;
50092;SDS011;35974;47.752;10.290;2023-08-30T07:16:54;4.38;;;3.55;;
50092;SDS011;35974;47.752;10.290;2023-08-30T07:19:21;4.28;;;3.65;;
50092;SDS011;35974;47.752;10.290;2023-08-30T07:21:47;4.47;;;3.28;;
50092;SDS011;35974;47.752;10.290;2023-08-30T07:24:14;4.28;;;3.58;;
50092;SDS011;35974;47.752;10.290;2023-08-30T07:26:40;4.18;;;3.60;;
50092;SDS011;35974;47.752;10.290;2023-08-30T07:29:08;4.55;;;3.30;;
50092;SDS011;35974;47.752;10.290;2023-08-30T07:31:35;6.28;;;3.55;;
50092;SDS011;35974;47.752;10.290;2023-08-30T07:34:01;4.70;;;3.75;;
50092;SDS011;35974;47.752;10.290;2023-08-30T07:36:29;3.20;;;2.90;;
50092;SDS011;35974;47.752;10.290;2023-08-30T07:39:12;4.75;;;4.25;;
50092;SDS011;35974;47.752;10.290;2023-08-30T07:41:39;4.03;;;3.53;;
50092;SDS011;35974;47.752;10.290;2023-08-30T07:44:05;3.67;;;3.25;;
50092;SDS011;35974;47.752;10.290;2023-08-30T07:46:32;7.28;;;3.97;;
50092;SDS011;35974;47.752;10.290;2023-08-30T07:48:58;4.97;;;4.22;;
50092;SDS011;35974;47.752;10.290;2023-08-30T07:51:25;6.07;;;4.57;;
50092;SDS011;35974;47.752;10.290;2023-08-30T07:53:52;6.75;;;4.60;;
50092;SDS011;35974;47.752;10.290;2023-08-30T07:56:18;6.45;;;4.90;;
50092;SDS011;35974;47.752;10.290;2023-08-30T07:58:45;5.72;;;4.20;;
50092;SDS011;35974;47.752;10.290;2023-08-30T08:01:11;4.15;;;3.75;;
50092;SDS011;35974;47.752;10.290;2023-08-30T08:03:38;4.93;;;4.00;;
50092;SDS011;35974;47.752;10.290;2023-08-30T08:06:14;4.95;;;4.25;;
50092;SDS011;35974;47.752;10.290;2023-08-30T08:08:40;5.53;;;4.20;;
50092;SDS011;35974;47.752;10.290;2023-08-30T08:11:07;6.15;;;4.40;;
50092;SDS011;35974;47.752;10.290;2023-08-30T08:13:33;4.40;;;3.85;;
50092;SDS011;35974;47.752;10.290;2023-08-30T08:16:00;4.35;;;3.55;;
50092;SDS011;35974;47.752;10.290;2023-08-30T08:18:27;4.82;;;4.25;;
50092;SDS011;35974;47.752;10.290;2023-08-30T08:20:53;4.72;;;4.30;;
50092;SDS011;35974;47.752;10.290;2023-08-30T08:23:20;5.55;;;4.50;;
50092;SDS011;35974;47.752;10.290;2023-08-30T08:25:46;5.32;;;4.55;;
50092;SDS011;35974;47.752;10.290;2023-08-30T08:28:13;5.53;;;4.80;;
50092;SDS011;35974;47.752;10.290;2023-08-30T08:30:39;5.70;;;4.78;;
50092;SDS011;35974;47.752;10.290;2023-08-30T08:33:06;5.60;;;4.68;;
50092;SDS011;35974;47.752;10.290;2023-08-30T08:35:33;5.65;;;4.63;;
50092;SDS011;35974;47.752;10.290;2023-08-30T08:38:00;4.40;;;4.00;;
50092;SDS011;35974;47.752;10.290;2023-08-30T08:40:27;5.22;;;4.20;;
50092;SDS011;35974;47.752;10.290;2023-08-30T08:43:09;4.18;;;3.65;;
50092;SDS011;35974;47.752;10.290;2023-08-30T08:45:37;4.45;;;3.70;;
50092;SDS011;35974;47.752;10.290;2023-08-30T08:48:04;3.72;;;3.35;;
50092;SDS011;35974;47.752;10.290;2023-08-30T08:50:32;4.90;;;4.15;;
50092;SDS011;35974;47.752;10.290;2023-08-30T08:52:59;3.60;;;3.30;;
50092;SDS011;35974;47.752;10.290;2023-08-30T08:55:27;4.28;;;3.83;;
50092;SDS011;35974;47.752;10.290;2023-08-30T08:57:57;4.63;;;4.22;;
50092;SDS011;35974;47.752;10.290;2023-08-30T09:00:25;6.40;;;3.97;;
50092;SDS011;35974;47.752;10.290;2023-08-30T09:02:52;8.43;;;4.25;;
50092;SDS011;35974;47.752;10.290;2023-08-30T09:05:20;5.43;;;3.42;;
50092;SDS011;35974;47.752;10.290;2023-08-30T09:07:47;4.00;;;3.35;;
50092;SDS011;35974;47.752;10.290;2023-08-30T09:10:15;3.63;;;2.80;;
50092;SDS011;35974;47.752;10.290;2023-08-30T09:12:41;4.45;;;3.00;;
50092;SDS011;35974;47.752;10.290;2023-08-30T09:15:08;5.82;;;3.08;;
50092;SDS011;35974;47.752;10.290;2023-08-30T09:17:35;4.55;;;3.45;;
50092;SDS011;35974;47.752;10.290;2023-08-30T09:20:09;3.55;;;2.72;;
50092;SDS011;35974;47.752;10.290;2023-08-30T09:22:41;5.05;;;3.40;;
50092;SDS011;35974;47.752;10.290;2023-08-30T09:25:09;3.60;;;3.00;;
50092;SDS011;35974;47.752;10.290;2023-08-30T09:27:37;3.17;;;2.88;;
50092;SDS011;35974;47.752;10.290;2023-08-30T09:30:08;4.03;;;2.78;;
50092;SDS011;35974;47.752;10.290;2023-08-30T09:32:40;10.48;;;3.10;;
50092;SDS011;35974;47.752;10.290;2023-08-30T09:35:11;3.45;;;2.42;;
50092;SDS011;35974;47.752;10.290;2023-08-30T09:37:38;4.28;;;2.40;;
50092;SDS011;35974;47.752;10.290;2023-08-30T09:40:05;2.53;;;2.10;;
50092;SDS011;35974;47.752;10.290;2023-08-30T09:42:33;2.83;;;1.98;;
50092;SDS011;35974;47.752;10.290;2023-08-30T09:44:59;4.57;;;1.80;;
50092;SDS011;35974;47.752;10.290;2023-08-30T09:47:27;7.65;;;2.20;;
50092;SDS011;35974;47.752;10.290;2023-08-30T09:49:55;6.00;;;2.00;;
50092;SDS011;35974;47.752;10.290;2023-08-30T09:52:23;5.55;;;1.95;;
50092;SDS011;35974;47.752;10.290;2023-08-30T09:54:51;3.58;;;1.40;;
50092;SDS011;35974;47.752;10.290;2023-08-30T09:57:18;3.58;;;1.30;;
50092;SDS011;35974;47.752;10.290;2023-08-30T09:59:45;1.92;;;1.10;;
50092;SDS011;35974;47.752;10.290;2023-08-30T10:02:12;2.88;;;1.60;;
50092;SDS011;35974;47.752;10.290;2023-08-30T10:04:39;2.42;;;1.23;;
50092;SDS011;35974;47.752;10.290;2023-08-30T10:07:07;1.88;;;1.30;;
50092;SDS011;35974;47.752;10.290;2023-08-30T10:09:35;2.13;;;1.40;;
50092;SDS011;35974;47.752;10.290;2023-08-30T10:12:20;4.82;;;1.30;;
50092;SDS011;35974;47.752;10.290;2023-08-30T10:14:49;4.28;;;1.75;;
50092;SDS011;35974;47.752;10.290;2023-08-30T10:17:17;1.88;;;1.10;;
50092;SDS011;35974;47.752;10.290;2023-08-30T10:19:44;3.38;;;1.45;;
50092;SDS011;35974;47.752;10.290;2023-08-30T10:22:11;1.92;;;1.30;;
50092;SDS011;35974;47.752;10.290;2023-08-30T10:24:57;1.40;;;1.05;;
50092;SDS011;35974;47.752;10.290;2023-08-30T10:27:38;3.80;;;1.23;;
50092;SDS011;35974;47.752;10.290;2023-08-30T10:30:09;1.83;;;1.30;;
50092;SDS011;35974;47.752;10.290;2023-08-30T10:32:40;2.88;;;1.05;;
50092;SDS011;35974;47.752;10.290;2023-08-30T10:35:10;2.85;;;0.90;;
50092;SDS011;35974;47.752;10.290;2023-08-30T10:37:38;1.63;;;1.00;;
50092;SDS011;35974;47.752;10.290;2023-08-30T10:40:05;2.13;;;1.10;;
50092;SDS011;35974;47.752;10.290;2023-08-30T10:42:32;2.10;;;1.40;;
50092;SDS011;35974;47.752;10.290;2023-08-30T10:45:00;1.52;;;0.90;;
50092;SDS011;35974;47.752;10.290;2023-08-30T10:47:34;1.05;;;0.95;;
50092;SDS011;35974;47.752;10.290;2023-08-30T10:50:09;1.00;;;0.90;;
50092;SDS011;35974;47.752;10.290;2023-08-30T10:52:38;2.67;;;1.05;;
50092;SDS011;35974;47.752;10.290;2023-08-30T10:55:05;1.40;;;0.80;;
50092;SDS011;35974;47.752;10.290;2023-08-30T10:57:43;1.73;;;0.82;;
50092;SDS011;35974;47.752;10.290;2023-08-30T11:02:50;3.15;;;1.23;;
50092;SDS011;35974;47.752;10.290;2023-08-30T11:05:18;1.50;;;0.90;;
50092;SDS011;35974;47.752;10.290;2023-08-30T11:07:47;6.97;;;1.35;;
50092;SDS011;35974;47.752;10.290;2023-08-30T11:10:15;2.60;;;1.30;;
50092;SDS011;35974;47.752;10.290;2023-08-30T11:12:42;1.88;;;1.00;;
50092;SDS011;35974;47.752;10.290;2023-08-30T11:15:10;1.10;;;0.98;;
50092;SDS011;35974;47.752;10.290;2023-08-30T11:17:39;1.42;;;0.90;;
50092;SDS011;35974;47.752;10.290;2023-08-30T11:20:15;1.00;;;0.90;;
50092;SDS011;35974;47.752;10.290;2023-08-30T11:22:45;5.40;;;1.75;;
50092;SDS011;35974;47.752;10.290;2023-08-30T11:25:15;1.13;;;0.98;;
50092;SDS011;35974;47.752;10.290;2023-08-30T11:27:43;1.13;;;0.82;;
50092;SDS011;35974;47.752;10.290;2023-08-30T11:30:10;5.80;;;1.10;;
50092;SDS011;35974;47.752;10.290;2023-08-30T11:32:38;1.17;;;0.80;;
50092;SDS011;35974;47.752;10.290;2023-08-30T11:35:06;2.97;;;0.70;;
50092;SDS011;35974;47.752;10.290;2023-08-30T11:37:33;0.88;;;0.75;;
50092;SDS011;35974;47.752;10.290;2023-08-30T11:40:01;0.90;;;0.80;;
50092;SDS011;35974;47.752;10.290;2023-08-30T11:42:30;0.88;;;0.80;;
50092;SDS011;35974;47.752;10.290;2023-08-30T11:45:00;3.35;;;0.90;;
50092;SDS011;35974;47.752;10.290;2023-08-30T11:47:27;1.63;;;0.88;;
50092;SDS011;35974;47.752;10.290;2023-08-30T11:49:54;4.78;;;1.08;;
50092;SDS011;35974;47.752;10.290;2023-08-30T11:52:23;1.33;;;0.95;;
50092;SDS011;35974;47.752;10.290;2023-08-30T11:54:51;5.28;;;1.20;;
50092;SDS011;35974;47.752;10.290;2023-08-30T11:57:18;3.65;;;1.13;;
50092;SDS011;35974;47.752;10.290;2023-08-30T11:59:45;2.75;;;0.85;;
50092;SDS011;35974;47.752;10.290;2023-08-30T12:02:13;1.52;;;0.70;;
50092;SDS011;35974;47.752;10.290;2023-08-30T12:04:42;1.27;;;0.82;;
50092;SDS011;35974;47.752;10.290;2023-08-30T12:07:24;15.20;;;1.40;;
50092;SDS011;35974;47.752;10.290;2023-08-30T12:09:52;4.22;;;1.00;;
50092;SDS011;35974;47.752;10.290;2023-08-30T12:12:29;2.80;;;0.85;;
50092;SDS011;35974;47.752;10.290;2023-08-30T12:14:57;2.00;;;1.15;;
50092;SDS011;35974;47.752;10.290;2023-08-30T12:17:24;6.03;;;1.40;;
50092;SDS011;35974;47.752;10.290;2023-08-30T12:19:57;2.03;;;1.20;;
50092;SDS011;35974;47.752;10.290;2023-08-30T12:22:24;1.52;;;1.00;;
50092;SDS011;35974;47.752;10.290;2023-08-30T12:25:01;1.45;;;1.27;;
50092;SDS011;35974;47.752;10.290;2023-08-30T12:27:29;2.53;;;1.20;;
50092;SDS011;35974;47.752;10.290;2023-08-30T12:29:55;1.98;;;1.20;;
50092;SDS011;35974;47.752;10.290;2023-08-30T12:32:22;2.80;;;1.00;;
50092;SDS011;35974;47.752;10.290;2023-08-30T12:34:48;1.98;;;1.05;;
50092;SDS011;35974;47.752;10.290;2023-08-30T12:37:15;3.85;;;1.25;;
50092;SDS011;35974;47.752;10.290;2023-08-30T12:39:41;3.50;;;1.17;;
50092;SDS011;35974;47.752;10.290;2023-08-30T12:42:08;7.18;;;1.30;;
50092;SDS011;35974;47.752;10.290;2023-08-30T12:44:35;2.40;;;0.90;;
50092;SDS011;35974;47.752;10.290;2023-08-30T12:47:02;1.23;;;1.00;;
50092;SDS011;35974;47.752;10.290;2023-08-30T12:49:29;1.60;;;0.85;;
50092;SDS011;35974;47.752;10.290;2023-08-30T12:51:55;2.97;;;1.13;;
50092;SDS011;35974;47.752;10.290;2023-08-30T12:54:22;4.72;;;1.30;;
50092;SDS011;35974;47.752;10.290;2023-08-30T12:56:49;1.52;;;1.10;;
50092;SDS011;35974;47.752;10.290;2023-08-30T12:59:15;1.90;;;1.13;;
50092;SDS011;35974;47.752;10.290;2023-08-30T13:01:42;1.48;;;0.90;;
50092;SDS011;35974;47.752;10.290;2023-08-30T13:04:08;2.50;;;0.85;;
50092;SDS011;35974;47.752;10.290;2023-08-30T13:06:35;6.40;;;1.50;;
50092;SDS011;35974;47.752;10.290;2023-08-30T13:09:01;2.05;;;1.25;;
50092;SDS011;35974;47.752;10.290;2023-08-30T13:11:29;1.20;;;0.90;;
50092;SDS011;35974;47.752;10.290;2023-08-30T13:13:58;1.58;;;0.90;;
50092;SDS011;35974;47.752;10.290;2023-08-30T13:16:25;3.65;;;1.40;;
50092;SDS011;35974;47.752;10.290;2023-08-30T13:18:51;1.75;;;1.20;;
50092;SDS011;35974;47.752;10.290;2023-08-30T13:21:18;3.63;;;1.00;;
50092;SDS011;35974;47.752;10.290;2023-08-30T13:23:52;1.13;;;1.00;;
50092;SDS011;35974;47.752;10.290;2023-08-30T13:26:19;2.83;;;1.15;;
50092;SDS011;35974;47.752;10.290;2023-08-30T13:28:45;1.98;;;1.00;;
50092;SDS011;35974;47.752;10.290;2023-08-30T13:31:12;2.10;;;1.20;;
50092;SDS011;35974;47.752;10.290;2023-08-30T13:33:38;2.22;;;1.00;;
50092;SDS011;35974;47.752;10.290;2023-08-30T13:36:05;1.42;;;0.95;;
50092;SDS011;35974;47.752;10.290;2023-08-30T13:38:32;2.13;;;1.10;;
50092;SDS011;35974;47.752;10.290;2023-08-30T13:40:59;4.70;;;1.17;;
50092;SDS011;35974;47.752;10.290;2023-08-30T13:43:26;2.55;;;1.20;;
50092;SDS011;35974;47.752;10.290;2023-08-30T13:45:59;1.83;;;0.98;;
50092;SDS011;35974;47.752;10.290;2023-08-30T13:48:26;2.60;;;0.90;;
50092;SDS011;35974;47.752;10.290;2023-08-30T13:50:52;1.10;;;0.88;;
50092;SDS011;35974;47.752;10.290;2023-08-30T13:53:19;2.97;;;1.00;;
50092;SDS011;35974;47.752;10.290;2023-08-30T13:55:46;1.83;;;1.00;;
50092;SDS011;35974;47.752;10.290;2023-08-30T13:58:14;1.23;;;1.08;;
50092;SDS011;35974;47.752;10.290;2023-08-30T14:00:44;0.98;;;0.93;;
50092;SDS011;35974;47.752;10.290;2023-08-30T14:03:11;2.13;;;1.30;;
50092;SDS011;35974;47.752;10.290;2023-08-30T14:05:38;2.28;;;1.27;;
50092;SDS011;35974;47.752;10.290;2023-08-30T14:08:07;1.33;;;1.20;;
50092;SDS011;35974;47.752;10.290;2023-08-30T14:10:35;3.53;;;1.65;;
50092;SDS011;35974;47.752;10.290;2023-08-30T14:13:01;2.30;;;1.35;;
50092;SDS011;35974;47.752;10.290;2023-08-30T14:15:27;1.50;;;1.20;;
50092;SDS011;35974;47.752;10.290;2023-08-30T14:17:54;1.42;;;1.20;;
50092;SDS011;35974;47.752;10.290;2023-08-30T14:20:20;2.33;;;1.30;;
50092;SDS011;35974;47.752;10.290;2023-08-30T14:22:47;3.15;;;1.58;;
50092;SDS011;35974;47.752;10.290;2023-08-30T14:25:13;1.38;;;1.08;;
50092;SDS011;35974;47.752;10.290;2023-08-30T14:27:40;2.15;;;1.50;;
50092;SDS011;35974;47.752;10.290;2023-08-30T14:30:07;2.05;;;1.35;;
50092;SDS011;35974;47.752;10.290;2023-08-30T14:32:34;2.13;;;1.20;;
50092;SDS011;35974;47.752;10.290;2023-08-30T14:35:02;4.93;;;1.20;;
50092;SDS011;35974;47.752;10.290;2023-08-30T14:37:29;2.63;;;1.35;;
50092;SDS011;35974;47.752;10.290;2023-08-30T14:39:55;5.22;;;1.48;;
50092;SDS011;35974;47.752;10.290;2023-08-30T14:42:22;2.05;;;1.33;;
50092;SDS011;35974;47.752;10.290;2023-08-30T14:44:49;1.80;;;1.25;;
50092;SDS011;35974;47.752;10.290;2023-08-30T14:47:17;3.47;;;1.23;;